sensor_id;sensor_type;location;lat;lon;timestamp;P1;P2;P0
69222;PMS7003;56514;51.816;-0.026;2022-12-10T00:00:13;11.00;11.00;7.50
69222;PMS7003;56514;51.816;-0.026;2022-12-10T00:03:21;7.00;7.00;6.00
69222;PMS7003;56514;51.816;-0.026;2022-12-10T00:06:31;7.00;7.00;6.00
69222;PMS7003;56514;51.816;-0.026;2022-12-10T00:09:42;6.50;6.50;6.00
69222;PMS7003;56514;51.816;-0.026;2022-12-10T00:12:33;4.00;4.00;3.00
69222;PMS7003;56514;51.816;-0.026;2022-12-10T00:15:18;7.00;7.00;4.00
69222;PMS7003;56514;51.816;-0.026;2022-12-10T00:18:02;6.50;6.50;6.00
69222;PMS7003;56514;51.816;-0.026;2022-12-10T00:20:47;7.25;7.25;5.00
69222;PMS7003;56514;51.816;-0.026;2022-12-10T00:23:32;10.25;8.50;7.00
69222;PMS7003;56514;51.816;-0.026;2022-12-10T00:26:18;6.00;6.00;5.00
69222;PMS7003;56514;51.816;-0.026;2022-12-10T00:29:11;20.00;18.25;12.75
69222;PMS7003;56514;51.816;-0.026;2022-12-10T00:31:56;20.75;14.00;10.00
69222;PMS7003;56514;51.816;-0.026;2022-12-10T00:34:41;9.25;9.25;6.75
69222;PMS7003;56514;51.816;-0.026;2022-12-10T00:37:26;7.00;7.00;5.00
69222;PMS7003;56514;51.816;-0.026;2022-12-10T00:40:11;8.00;7.00;6.50
69222;PMS7003;56514;51.816;-0.026;2022-12-10T00:42:56;9.75;8.50;6.00
69222;PMS7003;56514;51.816;-0.026;2022-12-10T00:45:41;5.00;5.00;4.00
69222;PMS7003;56514;51.816;-0.026;2022-12-10T00:48:25;7.00;7.00;6.75
69222;PMS7003;56514;51.816;-0.026;2022-12-10T00:51:12;7.25;6.00;4.00
69222;PMS7003;56514;51.816;-0.026;2022-12-10T00:54:01;4.00;4.00;3.75
69222;PMS7003;56514;51.816;-0.026;2022-12-10T00:56:46;5.00;5.00;3.75
69222;PMS7003;56514;51.816;-0.026;2022-12-10T00:59:32;5.00;5.00;3.75
69222;PMS7003;56514;51.816;-0.026;2022-12-10T01:02:16;6.00;6.00;6.00
69222;PMS7003;56514;51.816;-0.026;2022-12-10T01:05:01;4.00;4.00;4.00
69222;PMS7003;56514;51.816;-0.026;2022-12-10T01:07:46;4.00;4.00;4.00
69222;PMS7003;56514;51.816;-0.026;2022-12-10T01:10:30;7.00;7.00;4.50
69222;PMS7003;56514;51.816;-0.026;2022-12-10T01:13:15;8.00;8.00;6.50
69222;PMS7003;56514;51.816;-0.026;2022-12-10T01:16:01;9.00;9.00;6.75
69222;PMS7003;56514;51.816;-0.026;2022-12-10T01:18:48;6.00;6.00;5.50
69222;PMS7003;56514;51.816;-0.026;2022-12-10T01:21:43;9.75;9.75;6.75
69222;PMS7003;56514;51.816;-0.026;2022-12-10T01:24:29;9.50;9.50;7.00
69222;PMS7003;56514;51.816;-0.026;2022-12-10T01:27:14;12.00;9.75;8.50
69222;PMS7003;56514;51.816;-0.026;2022-12-10T01:29:59;9.50;9.50;8.00
69222;PMS7003;56514;51.816;-0.026;2022-12-10T01:32:44;11.00;11.00;7.50
69222;PMS7003;56514;51.816;-0.026;2022-12-10T01:35:29;10.50;10.50;9.50
69222;PMS7003;56514;51.816;-0.026;2022-12-10T01:38:13;13.00;13.00;9.75
69222;PMS7003;56514;51.816;-0.026;2022-12-10T01:40:59;11.00;11.00;9.25
69222;PMS7003;56514;51.816;-0.026;2022-12-10T01:43:58;6.50;6.50;5.00
69222;PMS7003;56514;51.816;-0.026;2022-12-10T01:46:45;3.50;3.50;3.50
69222;PMS7003;56514;51.816;-0.026;2022-12-10T01:49:33;6.25;6.25;5.00
69222;PMS7003;56514;51.816;-0.026;2022-12-10T01:52:20;9.00;9.00;7.75
69222;PMS7003;56514;51.816;-0.026;2022-12-10T01:58:39;9.75;9.00;7.50
69222;PMS7003;56514;51.816;-0.026;2022-12-10T02:04:42;6.00;6.00;5.50
69222;PMS7003;56514;51.816;-0.026;2022-12-10T02:16:22;4.50;4.50;4.00
69222;PMS7003;56514;51.816;-0.026;2022-12-10T02:19:20;6.00;6.00;5.50
69222;PMS7003;56514;51.816;-0.026;2022-12-10T02:22:12;6.25;6.25;6.00
69222;PMS7003;56514;51.816;-0.026;2022-12-10T02:24:59;8.25;8.25;7.50
69222;PMS7003;56514;51.816;-0.026;2022-12-10T02:27:53;12.50;12.50;9.75
69222;PMS7003;56514;51.816;-0.026;2022-12-10T02:30:40;8.50;8.50;6.25
69222;PMS7003;56514;51.816;-0.026;2022-12-10T02:33:27;6.00;6.00;4.00
69222;PMS7003;56514;51.816;-0.026;2022-12-10T02:36:14;7.00;7.00;7.00
69222;PMS7003;56514;51.816;-0.026;2022-12-10T02:39:02;6.50;6.50;5.25
69222;PMS7003;56514;51.816;-0.026;2022-12-10T02:41:52;7.00;7.00;5.00
69222;PMS7003;56514;51.816;-0.026;2022-12-10T02:44:39;5.00;5.00;4.00
69222;PMS7003;56514;51.816;-0.026;2022-12-10T02:47:27;5.50;5.50;4.00
69222;PMS7003;56514;51.816;-0.026;2022-12-10T02:50:12;6.75;6.50;5.50
69222;PMS7003;56514;51.816;-0.026;2022-12-10T02:53:02;4.50;4.50;3.50
69222;PMS7003;56514;51.816;-0.026;2022-12-10T02:58:58;7.50;6.25;6.00
69222;PMS7003;56514;51.816;-0.026;2022-12-10T03:02:04;7.25;7.25;6.50
69222;PMS7003;56514;51.816;-0.026;2022-12-10T03:05:20;4.00;4.00;4.00
69222;PMS7003;56514;51.816;-0.026;2022-12-10T03:08:38;6.75;6.75;6.50
69222;PMS7003;56514;51.816;-0.026;2022-12-10T03:11:30;6.25;6.25;4.50
69222;PMS7003;56514;51.816;-0.026;2022-12-10T03:14:18;5.50;5.50;4.00
69222;PMS7003;56514;51.816;-0.026;2022-12-10T03:17:10;5.50;5.50;3.25
69222;PMS7003;56514;51.816;-0.026;2022-12-10T03:19:57;6.25;4.00;3.25
69222;PMS7003;56514;51.816;-0.026;2022-12-10T03:22:45;0.25;0.25;0.00
69222;PMS7003;56514;51.816;-0.026;2022-12-10T03:25:32;4.00;4.00;4.00
69222;PMS7003;56514;51.816;-0.026;2022-12-10T03:28:18;2.00;2.00;2.00
69222;PMS7003;56514;51.816;-0.026;2022-12-10T03:31:06;2.00;2.00;1.00
69222;PMS7003;56514;51.816;-0.026;2022-12-10T03:33:54;1.50;1.50;1.50
69222;PMS7003;56514;51.816;-0.026;2022-12-10T03:36:39;1.50;1.50;1.00
69222;PMS7003;56514;51.816;-0.026;2022-12-10T03:39:26;3.50;3.50;3.00
69222;PMS7003;56514;51.816;-0.026;2022-12-10T03:42:12;4.50;4.50;4.00
69222;PMS7003;56514;51.816;-0.026;2022-12-10T03:44:57;4.00;4.00;3.50
69222;PMS7003;56514;51.816;-0.026;2022-12-10T03:47:42;3.00;3.00;3.00
69222;PMS7003;56514;51.816;-0.026;2022-12-10T03:50:26;6.25;6.25;4.00
69222;PMS7003;56514;51.816;-0.026;2022-12-10T03:53:11;2.00;2.00;2.00
69222;PMS7003;56514;51.816;-0.026;2022-12-10T03:55:56;6.00;5.00;3.75
69222;PMS7003;56514;51.816;-0.026;2022-12-10T03:58:41;4.25;3.75;3.00
69222;PMS7003;56514;51.816;-0.026;2022-12-10T04:01:26;5.50;3.50;3.00
69222;PMS7003;56514;51.816;-0.026;2022-12-10T04:04:11;4.00;4.00;4.00
69222;PMS7003;56514;51.816;-0.026;2022-12-10T04:06:56;3.25;3.25;3.00
69222;PMS7003;56514;51.816;-0.026;2022-12-10T04:09:41;2.50;2.50;2.50
69222;PMS7003;56514;51.816;-0.026;2022-12-10T04:12:25;1.00;1.00;1.00
69222;PMS7003;56514;51.816;-0.026;2022-12-10T04:15:10;3.75;2.75;2.00
69222;PMS7003;56514;51.816;-0.026;2022-12-10T04:18:14;3.00;3.00;3.00
69222;PMS7003;56514;51.816;-0.026;2022-12-10T04:20:58;3.00;3.00;3.00
69222;PMS7003;56514;51.816;-0.026;2022-12-10T04:24:02;1.00;1.00;1.00
69222;PMS7003;56514;51.816;-0.026;2022-12-10T04:27:10;2.50;2.50;2.50
69222;PMS7003;56514;51.816;-0.026;2022-12-10T04:29:58;1.00;1.00;1.00
69222;PMS7003;56514;51.816;-0.026;2022-12-10T04:32:43;3.75;3.75;3.25
69222;PMS7003;56514;51.816;-0.026;2022-12-10T04:35:29;6.50;6.25;6.00
69222;PMS7003;56514;51.816;-0.026;2022-12-10T04:38:13;6.50;6.50;4.50
69222;PMS7003;56514;51.816;-0.026;2022-12-10T04:40:58;1.50;1.50;1.00
69222;PMS7003;56514;51.816;-0.026;2022-12-10T04:43:43;7.00;7.00;6.00
69222;PMS7003;56514;51.816;-0.026;2022-12-10T04:46:28;4.50;4.50;3.50
69222;PMS7003;56514;51.816;-0.026;2022-12-10T04:49:13;5.50;3.50;3.00
69222;PMS7003;56514;51.816;-0.026;2022-12-10T04:51:58;5.00;5.00;4.00
69222;PMS7003;56514;51.816;-0.026;2022-12-10T04:54:44;3.75;3.75;3.00
69222;PMS7003;56514;51.816;-0.026;2022-12-10T04:57:29;0.75;0.75;0.50
69222;PMS7003;56514;51.816;-0.026;2022-12-10T05:00:13;3.25;3.25;2.50
69222;PMS7003;56514;51.816;-0.026;2022-12-10T05:02:59;3.50;3.50;3.25
69222;PMS7003;56514;51.816;-0.026;2022-12-10T05:05:43;1.00;1.00;1.00
69222;PMS7003;56514;51.816;-0.026;2022-12-10T05:08:28;4.00;4.00;4.00
69222;PMS7003;56514;51.816;-0.026;2022-12-10T05:11:17;3.75;3.75;3.50
69222;PMS7003;56514;51.816;-0.026;2022-12-10T05:14:04;5.00;3.00;3.00
69222;PMS7003;56514;51.816;-0.026;2022-12-10T05:16:49;3.00;3.00;2.50
69222;PMS7003;56514;51.816;-0.026;2022-12-10T05:19:37;2.75;2.75;2.75
69222;PMS7003;56514;51.816;-0.026;2022-12-10T05:22:22;4.50;4.50;3.50
69222;PMS7003;56514;51.816;-0.026;2022-12-10T05:25:26;4.00;4.00;4.00
69222;PMS7003;56514;51.816;-0.026;2022-12-10T05:28:11;4.00;4.00;3.75
69222;PMS7003;56514;51.816;-0.026;2022-12-10T05:30:56;6.50;6.50;6.25
69222;PMS7003;56514;51.816;-0.026;2022-12-10T05:33:41;9.00;7.00;6.00
69222;PMS7003;56514;51.816;-0.026;2022-12-10T05:36:27;8.00;8.00;6.75
69222;PMS7003;56514;51.816;-0.026;2022-12-10T05:39:14;9.25;9.25;7.00
69222;PMS7003;56514;51.816;-0.026;2022-12-10T05:41:59;8.50;8.00;6.50
69222;PMS7003;56514;51.816;-0.026;2022-12-10T05:44:44;9.00;9.00;7.00
69222;PMS7003;56514;51.816;-0.026;2022-12-10T05:47:29;7.00;7.00;6.50
69222;PMS7003;56514;51.816;-0.026;2022-12-10T05:50:13;6.50;6.50;3.75
69222;PMS7003;56514;51.816;-0.026;2022-12-10T05:52:58;5.00;5.00;4.50
69222;PMS7003;56514;51.816;-0.026;2022-12-10T05:55:43;4.00;4.00;4.00
69222;PMS7003;56514;51.816;-0.026;2022-12-10T05:58:29;6.75;6.75;5.75
69222;PMS7003;56514;51.816;-0.026;2022-12-10T06:01:15;5.50;4.75;3.50
69222;PMS7003;56514;51.816;-0.026;2022-12-10T06:04:05;6.50;6.50;5.00
69222;PMS7003;56514;51.816;-0.026;2022-12-10T06:06:50;6.25;6.00;4.00
69222;PMS7003;56514;51.816;-0.026;2022-12-10T06:09:34;4.25;4.25;3.50
69222;PMS7003;56514;51.816;-0.026;2022-12-10T06:12:20;6.00;6.00;5.50
69222;PMS7003;56514;51.816;-0.026;2022-12-10T06:15:05;3.25;3.25;3.00
69222;PMS7003;56514;51.816;-0.026;2022-12-10T06:17:50;4.50;3.50;3.25
69222;PMS7003;56514;51.816;-0.026;2022-12-10T06:20:37;3.25;3.25;2.50
69222;PMS7003;56514;51.816;-0.026;2022-12-10T06:23:23;4.50;4.50;3.75
69222;PMS7003;56514;51.816;-0.026;2022-12-10T06:26:09;3.25;3.25;3.25
69222;PMS7003;56514;51.816;-0.026;2022-12-10T06:28:59;4.00;4.00;3.75
69222;PMS7003;56514;51.816;-0.026;2022-12-10T06:31:45;3.25;2.75;2.50
69222;PMS7003;56514;51.816;-0.026;2022-12-10T06:34:30;5.00;5.00;4.00
69222;PMS7003;56514;51.816;-0.026;2022-12-10T06:37:15;5.50;5.50;5.50
69222;PMS7003;56514;51.816;-0.026;2022-12-10T06:39:59;6.50;6.50;5.00
69222;PMS7003;56514;51.816;-0.026;2022-12-10T06:42:44;1.00;1.00;1.00
69222;PMS7003;56514;51.816;-0.026;2022-12-10T06:45:29;3.50;3.50;3.25
69222;PMS7003;56514;51.816;-0.026;2022-12-10T06:48:14;5.75;5.75;4.50
69222;PMS7003;56514;51.816;-0.026;2022-12-10T06:50:58;6.00;6.00;4.00
69222;PMS7003;56514;51.816;-0.026;2022-12-10T06:53:43;3.00;3.00;3.00
69222;PMS7003;56514;51.816;-0.026;2022-12-10T06:56:29;2.50;1.50;0.50
69222;PMS7003;56514;51.816;-0.026;2022-12-10T06:59:14;3.25;3.25;3.00
69222;PMS7003;56514;51.816;-0.026;2022-12-10T07:01:58;5.25;5.25;4.00
69222;PMS7003;56514;51.816;-0.026;2022-12-10T07:04:43;11.00;9.50;6.50
69222;PMS7003;56514;51.816;-0.026;2022-12-10T07:07:28;8.00;8.00;6.75
69222;PMS7003;56514;51.816;-0.026;2022-12-10T07:10:13;6.00;6.00;6.00
69222;PMS7003;56514;51.816;-0.026;2022-12-10T07:12:58;9.00;9.00;8.00
69222;PMS7003;56514;51.816;-0.026;2022-12-10T07:15:45;7.00;7.00;3.75
69222;PMS7003;56514;51.816;-0.026;2022-12-10T07:18:29;5.50;5.50;4.00
69222;PMS7003;56514;51.816;-0.026;2022-12-10T07:24:03;8.00;6.50;6.25
69222;PMS7003;56514;51.816;-0.026;2022-12-10T07:26:50;7.00;7.00;6.00
69222;PMS7003;56514;51.816;-0.026;2022-12-10T07:29:37;8.00;8.00;6.00
69222;PMS7003;56514;51.816;-0.026;2022-12-10T07:32:22;5.50;5.50;4.25
69222;PMS7003;56514;51.816;-0.026;2022-12-10T07:35:06;4.50;4.50;3.00
69222;PMS7003;56514;51.816;-0.026;2022-12-10T07:37:52;4.50;4.50;3.00
69222;PMS7003;56514;51.816;-0.026;2022-12-10T07:40:38;8.75;6.00;4.00
69222;PMS7003;56514;51.816;-0.026;2022-12-10T07:43:23;4.50;4.50;4.50
69222;PMS7003;56514;51.816;-0.026;2022-12-10T07:46:22;4.00;4.00;3.00
69222;PMS7003;56514;51.816;-0.026;2022-12-10T07:49:08;6.25;4.00;3.25
69222;PMS7003;56514;51.816;-0.026;2022-12-10T07:51:53;3.00;3.00;2.50
69222;PMS7003;56514;51.816;-0.026;2022-12-10T07:54:38;3.50;3.50;3.00
69222;PMS7003;56514;51.816;-0.026;2022-12-10T07:57:22;4.50;4.50;3.25
69222;PMS7003;56514;51.816;-0.026;2022-12-10T08:00:08;3.25;3.25;3.00
69222;PMS7003;56514;51.816;-0.026;2022-12-10T08:02:53;3.00;3.00;3.00
69222;PMS7003;56514;51.816;-0.026;2022-12-10T08:05:38;4.00;4.00;3.50
69222;PMS7003;56514;51.816;-0.026;2022-12-10T08:08:23;3.25;3.25;3.00
69222;PMS7003;56514;51.816;-0.026;2022-12-10T08:11:08;5.00;5.00;3.50
69222;PMS7003;56514;51.816;-0.026;2022-12-10T08:13:53;3.25;3.25;3.25
69222;PMS7003;56514;51.816;-0.026;2022-12-10T08:16:39;6.75;5.50;4.00
69222;PMS7003;56514;51.816;-0.026;2022-12-10T08:19:24;7.00;4.75;4.00
69222;PMS7003;56514;51.816;-0.026;2022-12-10T08:22:09;5.00;5.00;4.00
69222;PMS7003;56514;51.816;-0.026;2022-12-10T08:24:53;6.25;6.25;6.00
69222;PMS7003;56514;51.816;-0.026;2022-12-10T08:27:38;7.50;6.25;4.50
69222;PMS7003;56514;51.816;-0.026;2022-12-10T08:30:23;7.00;7.00;6.25
69222;PMS7003;56514;51.816;-0.026;2022-12-10T08:33:08;5.50;5.50;3.25
69222;PMS7003;56514;51.816;-0.026;2022-12-10T08:35:56;7.25;7.25;6.25
69222;PMS7003;56514;51.816;-0.026;2022-12-10T08:38:43;5.50;5.50;4.00
69222;PMS7003;56514;51.816;-0.026;2022-12-10T08:41:29;8.50;8.50;6.75
69222;PMS7003;56514;51.816;-0.026;2022-12-10T08:44:16;6.75;6.75;4.50
69222;PMS7003;56514;51.816;-0.026;2022-12-10T08:47:01;9.00;9.00;5.50
69222;PMS7003;56514;51.816;-0.026;2022-12-10T08:49:46;6.25;6.25;5.50
69222;PMS7003;56514;51.816;-0.026;2022-12-10T08:52:31;7.50;7.50;6.50
69222;PMS7003;56514;51.816;-0.026;2022-12-10T08:55:16;5.00;5.00;4.25
69222;PMS7003;56514;51.816;-0.026;2022-12-10T08:58:00;6.00;6.00;5.00
69222;PMS7003;56514;51.816;-0.026;2022-12-10T09:00:47;5.00;5.00;5.00
69222;PMS7003;56514;51.816;-0.026;2022-12-10T09:03:33;6.25;6.25;5.00
69222;PMS7003;56514;51.816;-0.026;2022-12-10T09:06:19;4.50;4.50;3.75
69222;PMS7003;56514;51.816;-0.026;2022-12-10T09:09:06;4.00;4.00;4.00
69222;PMS7003;56514;51.816;-0.026;2022-12-10T09:11:51;5.00;5.00;4.00
69222;PMS7003;56514;51.816;-0.026;2022-12-10T09:14:35;8.00;8.00;6.50
69222;PMS7003;56514;51.816;-0.026;2022-12-10T09:17:22;11.00;11.00;8.75
69222;PMS7003;56514;51.816;-0.026;2022-12-10T09:20:07;7.00;7.00;6.75
69222;PMS7003;56514;51.816;-0.026;2022-12-10T09:22:52;10.75;10.25;8.00
69222;PMS7003;56514;51.816;-0.026;2022-12-10T09:25:37;8.00;8.00;7.00
69222;PMS7003;56514;51.816;-0.026;2022-12-10T09:28:22;8.50;6.75;6.00
69222;PMS7003;56514;51.816;-0.026;2022-12-10T09:31:07;6.00;6.00;5.50
69222;PMS7003;56514;51.816;-0.026;2022-12-10T09:33:53;6.50;6.50;6.50
69222;PMS7003;56514;51.816;-0.026;2022-12-10T09:36:38;17.25;11.75;9.75
69222;PMS7003;56514;51.816;-0.026;2022-12-10T09:39:23;13.75;13.75;12.25
69222;PMS7003;56514;51.816;-0.026;2022-12-10T09:42:21;10.50;9.75;7.00
69222;PMS7003;56514;51.816;-0.026;2022-12-10T09:51:36;12.25;12.25;10.00
69222;PMS7003;56514;51.816;-0.026;2022-12-10T09:54:32;13.00;13.00;10.50
69222;PMS7003;56514;51.816;-0.026;2022-12-10T09:57:40;10.75;10.75;8.50
69222;PMS7003;56514;51.816;-0.026;2022-12-10T10:03:13;12.25;12.25;8.50
69222;PMS7003;56514;51.816;-0.026;2022-12-10T10:06:00;21.00;21.00;15.00
69222;PMS7003;56514;51.816;-0.026;2022-12-10T10:08:48;20.50;18.25;14.50
69222;PMS7003;56514;51.816;-0.026;2022-12-10T10:11:38;18.50;17.00;12.50
69222;PMS7003;56514;51.816;-0.026;2022-12-10T10:14:25;14.75;13.75;12.00
69222;PMS7003;56514;51.816;-0.026;2022-12-10T10:17:23;28.75;24.25;19.25
69222;PMS7003;56514;51.816;-0.026;2022-12-10T10:20:17;21.50;20.00;15.25
69222;PMS7003;56514;51.816;-0.026;2022-12-10T10:23:02;20.50;18.25;16.25
69222;PMS7003;56514;51.816;-0.026;2022-12-10T10:25:47;19.00;19.00;14.75
69222;PMS7003;56514;51.816;-0.026;2022-12-10T10:28:32;22.25;20.75;16.50
69222;PMS7003;56514;51.816;-0.026;2022-12-10T10:31:24;22.00;20.75;14.00
69222;PMS7003;56514;51.816;-0.026;2022-12-10T10:34:21;17.75;17.75;13.50
69222;PMS7003;56514;51.816;-0.026;2022-12-10T10:37:11;23.00;22.75;16.25
69222;PMS7003;56514;51.816;-0.026;2022-12-10T10:40:01;19.00;19.00;15.00
69222;PMS7003;56514;51.816;-0.026;2022-12-10T10:42:46;26.75;19.25;14.75
69222;PMS7003;56514;51.816;-0.026;2022-12-10T10:45:41;20.25;18.00;15.25
69222;PMS7003;56514;51.816;-0.026;2022-12-10T10:48:28;15.75;15.75;13.00
69222;PMS7003;56514;51.816;-0.026;2022-12-10T10:54:03;18.50;18.50;15.25
69222;PMS7003;56514;51.816;-0.026;2022-12-10T10:56:47;21.00;21.00;15.50
69222;PMS7003;56514;51.816;-0.026;2022-12-10T10:59:34;16.50;16.25;12.50
69222;PMS7003;56514;51.816;-0.026;2022-12-10T11:02:23;21.00;18.00;14.50
69222;PMS7003;56514;51.816;-0.026;2022-12-10T11:05:24;23.50;18.75;15.50
69222;PMS7003;56514;51.816;-0.026;2022-12-10T11:08:16;21.50;20.25;12.50
69222;PMS7003;56514;51.816;-0.026;2022-12-10T11:11:03;18.75;18.00;13.00
69222;PMS7003;56514;51.816;-0.026;2022-12-10T11:13:51;14.00;14.00;11.00
69222;PMS7003;56514;51.816;-0.026;2022-12-10T11:16:37;14.50;14.50;11.50
69222;PMS7003;56514;51.816;-0.026;2022-12-10T11:19:23;15.75;14.75;10.50
69222;PMS7003;56514;51.816;-0.026;2022-12-10T11:22:21;15.00;15.00;11.50
69222;PMS7003;56514;51.816;-0.026;2022-12-10T11:25:11;13.00;12.00;10.50
69222;PMS7003;56514;51.816;-0.026;2022-12-10T11:31:17;16.50;15.25;12.75
69222;PMS7003;56514;51.816;-0.026;2022-12-10T11:43:20;21.00;21.00;16.00
69222;PMS7003;56514;51.816;-0.026;2022-12-10T11:50:25;27.00;21.00;15.50
69222;PMS7003;56514;51.816;-0.026;2022-12-10T11:56:31;20.00;20.00;16.00
69222;PMS7003;56514;51.816;-0.026;2022-12-10T11:59:26;13.00;13.00;9.33
69222;PMS7003;56514;51.816;-0.026;2022-12-10T12:17:30;18.00;16.00;12.00
69222;PMS7003;56514;51.816;-0.026;2022-12-10T12:20:30;16.00;16.00;12.33
69222;PMS7003;56514;51.816;-0.026;2022-12-10T12:23:22;18.33;15.67;12.00
69222;PMS7003;56514;51.816;-0.026;2022-12-10T12:26:11;16.67;16.00;12.00
69222;PMS7003;56514;51.816;-0.026;2022-12-10T12:32:04;13.00;13.00;12.00
69222;PMS7003;56514;51.816;-0.026;2022-12-10T12:34:59;15.00;13.00;11.33
69222;PMS7003;56514;51.816;-0.026;2022-12-10T12:37:54;16.00;16.00;13.00
69222;PMS7003;56514;51.816;-0.026;2022-12-10T12:41:03;13.67;9.33;7.67
69222;PMS7003;56514;51.816;-0.026;2022-12-10T12:44:00;8.33;8.33;7.00
69222;PMS7003;56514;51.816;-0.026;2022-12-10T12:46:53;15.33;15.00;10.00
69222;PMS7003;56514;51.816;-0.026;2022-12-10T12:49:39;15.33;12.67;10.00
69222;PMS7003;56514;51.816;-0.026;2022-12-10T12:55:18;16.67;16.67;10.00
69222;PMS7003;56514;51.816;-0.026;2022-12-10T13:04:31;13.67;13.67;11.67
69222;PMS7003;56514;51.816;-0.026;2022-12-10T13:13:36;15.50;14.75;11.25
69222;PMS7003;56514;51.816;-0.026;2022-12-10T13:22:09;11.00;10.50;9.25
69222;PMS7003;56514;51.816;-0.026;2022-12-10T13:25:10;8.75;8.75;8.00
69222;PMS7003;56514;51.816;-0.026;2022-12-10T13:27:58;11.00;11.00;8.50
69222;PMS7003;56514;51.816;-0.026;2022-12-10T13:39:35;12.00;12.00;12.00
69222;PMS7003;56514;51.816;-0.026;2022-12-10T13:42:31;9.50;9.50;9.00
69222;PMS7003;56514;51.816;-0.026;2022-12-10T13:45:37;10.50;8.50;8.00
69222;PMS7003;56514;51.816;-0.026;2022-12-10T13:59:45;5.75;5.75;4.75
69222;PMS7003;56514;51.816;-0.026;2022-12-10T14:09:10;7.75;7.75;6.50
69222;PMS7003;56514;51.816;-0.026;2022-12-10T14:12:13;7.00;7.00;5.00
69222;PMS7003;56514;51.816;-0.026;2022-12-10T14:15:03;7.50;7.50;6.00
69222;PMS7003;56514;51.816;-0.026;2022-12-10T14:17:53;6.50;6.50;6.00
69222;PMS7003;56514;51.816;-0.026;2022-12-10T14:20:53;5.00;5.00;4.00
69222;PMS7003;56514;51.816;-0.026;2022-12-10T14:23:39;7.00;7.00;5.00
69222;PMS7003;56514;51.816;-0.026;2022-12-10T14:26:33;6.50;6.50;5.50
69222;PMS7003;56514;51.816;-0.026;2022-12-10T14:29:21;4.25;4.25;3.75
69222;PMS7003;56514;51.816;-0.026;2022-12-10T14:32:06;7.25;7.00;6.00
69222;PMS7003;56514;51.816;-0.026;2022-12-10T14:34:58;4.25;3.75;1.25
69222;PMS7003;56514;51.816;-0.026;2022-12-10T14:37:45;7.50;7.50;7.25
69222;PMS7003;56514;51.816;-0.026;2022-12-10T14:40:37;8.00;8.00;7.75
69222;PMS7003;56514;51.816;-0.026;2022-12-10T14:43:34;7.25;7.25;5.50
69222;PMS7003;56514;51.816;-0.026;2022-12-10T14:46:23;10.25;9.25;7.50
69222;PMS7003;56514;51.816;-0.026;2022-12-10T14:49:24;9.75;9.75;8.00
69222;PMS7003;56514;51.816;-0.026;2022-12-10T14:52:12;9.00;9.00;8.25
69222;PMS7003;56514;51.816;-0.026;2022-12-10T14:54:59;12.25;12.25;12.00
69222;PMS7003;56514;51.816;-0.026;2022-12-10T14:57:48;14.50;14.50;12.25
69222;PMS7003;56514;51.816;-0.026;2022-12-10T15:00:39;11.00;11.00;10.25
69222;PMS7003;56514;51.816;-0.026;2022-12-10T15:03:26;9.75;9.75;7.50
69222;PMS7003;56514;51.816;-0.026;2022-12-10T15:06:15;8.00;8.00;7.00
69222;PMS7003;56514;51.816;-0.026;2022-12-10T15:09:03;6.00;6.00;5.50
69222;PMS7003;56514;51.816;-0.026;2022-12-10T15:11:53;5.50;5.50;4.25
69222;PMS7003;56514;51.816;-0.026;2022-12-10T15:14:39;5.50;5.50;4.75
69222;PMS7003;56514;51.816;-0.026;2022-12-10T15:32:15;6.25;6.25;6.25
69222;PMS7003;56514;51.816;-0.026;2022-12-10T15:35:10;8.50;7.00;6.75
69222;PMS7003;56514;51.816;-0.026;2022-12-10T15:37:58;4.00;4.00;4.00
69222;PMS7003;56514;51.816;-0.026;2022-12-10T15:40:45;12.00;12.00;9.25
69222;PMS7003;56514;51.816;-0.026;2022-12-10T15:43:29;9.25;9.25;7.50
69222;PMS7003;56514;51.816;-0.026;2022-12-10T15:46:16;8.00;8.00;6.50
69222;PMS7003;56514;51.816;-0.026;2022-12-10T15:49:02;6.50;6.50;6.00
69222;PMS7003;56514;51.816;-0.026;2022-12-10T15:51:47;9.00;9.00;7.00
69222;PMS7003;56514;51.816;-0.026;2022-12-10T15:54:33;10.50;7.00;6.00
69222;PMS7003;56514;51.816;-0.026;2022-12-10T15:57:27;6.33;6.33;6.33
69222;PMS7003;56514;51.816;-0.026;2022-12-10T16:00:24;4.00;4.00;3.50
69222;PMS7003;56514;51.816;-0.026;2022-12-10T16:03:13;4.00;4.00;4.00
69222;PMS7003;56514;51.816;-0.026;2022-12-10T16:05:59;4.00;4.00;3.67
69222;PMS7003;56514;51.816;-0.026;2022-12-10T16:08:44;3.75;3.75;3.75
69222;PMS7003;56514;51.816;-0.026;2022-12-10T16:11:28;3.75;3.75;3.00
69222;PMS7003;56514;51.816;-0.026;2022-12-10T16:14:13;4.67;4.67;4.67
69222;PMS7003;56514;51.816;-0.026;2022-12-10T16:16:59;4.00;4.00;4.00
69222;PMS7003;56514;51.816;-0.026;2022-12-10T16:19:43;5.33;5.33;3.67
69222;PMS7003;56514;51.816;-0.026;2022-12-10T16:22:29;7.67;7.67;7.00
69222;PMS7003;56514;51.816;-0.026;2022-12-10T16:25:13;9.00;9.00;7.00
69222;PMS7003;56514;51.816;-0.026;2022-12-10T16:27:59;6.33;6.00;4.67
69222;PMS7003;56514;51.816;-0.026;2022-12-10T16:30:48;7.67;7.67;6.00
69222;PMS7003;56514;51.816;-0.026;2022-12-10T16:33:58;5.33;5.33;3.67
69222;PMS7003;56514;51.816;-0.026;2022-12-10T16:36:43;4.00;4.00;4.00
69222;PMS7003;56514;51.816;-0.026;2022-12-10T16:39:28;4.00;4.00;3.67
69222;PMS7003;56514;51.816;-0.026;2022-12-10T16:42:13;3.67;3.67;3.33
69222;PMS7003;56514;51.816;-0.026;2022-12-10T16:44:58;3.00;1.67;1.00
69222;PMS7003;56514;51.816;-0.026;2022-12-10T16:47:43;6.00;6.00;6.00
69222;PMS7003;56514;51.816;-0.026;2022-12-10T16:50:28;9.75;8.50;7.00
69222;PMS7003;56514;51.816;-0.026;2022-12-10T16:56:20;9.75;9.75;8.50
69222;PMS7003;56514;51.816;-0.026;2022-12-10T16:59:05;6.00;6.00;6.00
69222;PMS7003;56514;51.816;-0.026;2022-12-10T17:01:50;8.50;8.50;6.75
69222;PMS7003;56514;51.816;-0.026;2022-12-10T17:04:35;8.25;8.00;7.50
69222;PMS7003;56514;51.816;-0.026;2022-12-10T17:07:20;13.50;13.50;12.00
69222;PMS7003;56514;51.816;-0.026;2022-12-10T17:10:05;13.75;13.75;11.00
69222;PMS7003;56514;51.816;-0.026;2022-12-10T17:12:51;7.75;7.75;5.00
69222;PMS7003;56514;51.816;-0.026;2022-12-10T17:15:36;15.25;14.00;10.25
69222;PMS7003;56514;51.816;-0.026;2022-12-10T17:18:22;15.50;15.50;13.25
69222;PMS7003;56514;51.816;-0.026;2022-12-10T17:21:07;18.00;15.50;12.50
69222;PMS7003;56514;51.816;-0.026;2022-12-10T17:23:52;20.25;20.25;14.25
69222;PMS7003;56514;51.816;-0.026;2022-12-10T17:26:39;18.75;18.75;15.50
69222;PMS7003;56514;51.816;-0.026;2022-12-10T17:29:30;22.25;21.00;18.00
69222;PMS7003;56514;51.816;-0.026;2022-12-10T17:32:16;27.75;27.75;19.50
69222;PMS7003;56514;51.816;-0.026;2022-12-10T17:35:02;30.25;24.25;14.50
69222;PMS7003;56514;51.816;-0.026;2022-12-10T17:37:47;32.75;28.50;22.00
69222;PMS7003;56514;51.816;-0.026;2022-12-10T17:40:38;24.75;23.50;18.50
69222;PMS7003;56514;51.816;-0.026;2022-12-10T17:43:23;22.00;20.25;16.25
69222;PMS7003;56514;51.816;-0.026;2022-12-10T17:46:10;19.75;17.75;14.75
69222;PMS7003;56514;51.816;-0.026;2022-12-10T17:48:56;19.75;19.75;15.00
69222;PMS7003;56514;51.816;-0.026;2022-12-10T17:51:41;23.50;22.50;15.75
69222;PMS7003;56514;51.816;-0.026;2022-12-10T17:54:30;23.25;23.25;17.00
69222;PMS7003;56514;51.816;-0.026;2022-12-10T17:57:18;28.25;28.00;21.75
69222;PMS7003;56514;51.816;-0.026;2022-12-10T18:00:10;36.00;34.75;25.75
69222;PMS7003;56514;51.816;-0.026;2022-12-10T18:02:58;33.00;33.00;25.25
69222;PMS7003;56514;51.816;-0.026;2022-12-10T18:05:42;32.75;30.00;21.50
69222;PMS7003;56514;51.816;-0.026;2022-12-10T18:08:28;37.25;30.00;20.00
69222;PMS7003;56514;51.816;-0.026;2022-12-10T18:11:13;27.00;27.00;19.00
69222;PMS7003;56514;51.816;-0.026;2022-12-10T18:14:01;29.75;28.00;21.50
69222;PMS7003;56514;51.816;-0.026;2022-12-10T18:16:46;35.50;32.50;23.25